sensor_id;sensor_type;location;lat;lon;timestamp;P1;durP1;ratioP1;P2;durP2;ratioP2
56051;SDS011;41919;42.648;23.384;2024-03-22T00:00:04;6.90;;;3.33;;
56051;SDS011;41919;42.648;23.384;2024-03-22T00:02:30;6.45;;;3.47;;
56051;SDS011;41919;42.648;23.384;2024-03-22T00:04:56;7.47;;;3.25;;
56051;SDS011;41919;42.648;23.384;2024-03-22T00:07:21;5.90;;;2.80;;
56051;SDS011;41919;42.648;23.384;2024-03-22T00:09:46;4.50;;;2.70;;
56051;SDS011;41919;42.648;23.384;2024-03-22T00:12:12;5.25;;;3.05;;
56051;SDS011;41919;42.648;23.384;2024-03-22T00:14:37;6.25;;;2.78;;
56051;SDS011;41919;42.648;23.384;2024-03-22T00:17:02;5.15;;;3.47;;
56051;SDS011;41919;42.648;23.384;2024-03-22T00:19:28;7.38;;;3.03;;
56051;SDS011;41919;42.648;23.384;2024-03-22T00:21:53;7.10;;;3.22;;
56051;SDS011;41919;42.648;23.384;2024-03-22T00:24:18;4.65;;;2.90;;
56051;SDS011;41919;42.648;23.384;2024-03-22T00:26:44;3.78;;;3.05;;
56051;SDS011;41919;42.648;23.384;2024-03-22T00:29:09;4.28;;;2.70;;
56051;SDS011;41919;42.648;23.384;2024-03-22T00:31:34;5.70;;;3.13;;
56051;SDS011;41919;42.648;23.384;2024-03-22T00:34:00;6.22;;;3.03;;
56051;SDS011;41919;42.648;23.384;2024-03-22T00:36:25;3.75;;;2.60;;
56051;SDS011;41919;42.648;23.384;2024-03-22T00:38:51;5.35;;;2.67;;
56051;SDS011;41919;42.648;23.384;2024-03-22T00:41:16;5.70;;;2.67;;
56051;SDS011;41919;42.648;23.384;2024-03-22T00:43:41;6.45;;;2.78;;
56051;SDS011;41919;42.648;23.384;2024-03-22T00:46:07;6.90;;;3.38;;
56051;SDS011;41919;42.648;23.384;2024-03-22T00:48:32;6.95;;;3.28;;
56051;SDS011;41919;42.648;23.384;2024-03-22T00:50:58;9.00;;;3.10;;
56051;SDS011;41919;42.648;23.384;2024-03-22T00:53:23;10.65;;;3.60;;
56051;SDS011;41919;42.648;23.384;2024-03-22T00:55:49;8.60;;;3.80;;
56051;SDS011;41919;42.648;23.384;2024-03-22T00:58:17;7.22;;;4.05;;
56051;SDS011;41919;42.648;23.384;2024-03-22T01:00:43;6.55;;;3.90;;
56051;SDS011;41919;42.648;23.384;2024-03-22T01:03:09;7.93;;;3.70;;
56051;SDS011;41919;42.648;23.384;2024-03-22T01:05:35;7.40;;;4.18;;
56051;SDS011;41919;42.648;23.384;2024-03-22T01:08:01;7.55;;;3.70;;
56051;SDS011;41919;42.648;23.384;2024-03-22T01:10:26;7.70;;;4.10;;
56051;SDS011;41919;42.648;23.384;2024-03-22T01:12:52;7.93;;;4.40;;
56051;SDS011;41919;42.648;23.384;2024-03-22T01:15:17;10.35;;;4.25;;
56051;SDS011;41919;42.648;23.384;2024-03-22T01:17:43;7.43;;;4.00;;
56051;SDS011;41919;42.648;23.384;2024-03-22T01:20:08;8.07;;;4.00;;
56051;SDS011;41919;42.648;23.384;2024-03-22T01:22:34;9.98;;;4.70;;
56051;SDS011;41919;42.648;23.384;2024-03-22T01:25:00;10.50;;;4.75;;
56051;SDS011;41919;42.648;23.384;2024-03-22T01:27:25;8.60;;;4.85;;
56051;SDS011;41919;42.648;23.384;2024-03-22T01:29:50;10.65;;;5.00;;
56051;SDS011;41919;42.648;23.384;2024-03-22T01:32:16;9.27;;;4.75;;
56051;SDS011;41919;42.648;23.384;2024-03-22T01:34:41;9.93;;;5.50;;
56051;SDS011;41919;42.648;23.384;2024-03-22T01:37:06;7.72;;;4.78;;
56051;SDS011;41919;42.648;23.384;2024-03-22T01:39:32;10.52;;;4.88;;
56051;SDS011;41919;42.648;23.384;2024-03-22T01:41:57;8.48;;;4.55;;
56051;SDS011;41919;42.648;23.384;2024-03-22T01:44:29;8.38;;;3.72;;
56051;SDS011;41919;42.648;23.384;2024-03-22T01:49:23;8.30;;;4.18;;
56051;SDS011;41919;42.648;23.384;2024-03-22T01:51:50;6.72;;;3.65;;
56051;SDS011;41919;42.648;23.384;2024-03-22T01:54:15;8.45;;;3.72;;
56051;SDS011;41919;42.648;23.384;2024-03-22T01:56:41;11.75;;;4.18;;
56051;SDS011;41919;42.648;23.384;2024-03-22T01:59:07;9.27;;;4.40;;
56051;SDS011;41919;42.648;23.384;2024-03-22T02:01:33;8.10;;;4.20;;
56051;SDS011;41919;42.648;23.384;2024-03-22T02:04:00;8.68;;;4.40;;
56051;SDS011;41919;42.648;23.384;2024-03-22T02:06:26;6.95;;;4.43;;
56051;SDS011;41919;42.648;23.384;2024-03-22T02:08:51;8.98;;;4.50;;
56051;SDS011;41919;42.648;23.384;2024-03-22T02:11:16;7.82;;;4.18;;
56051;SDS011;41919;42.648;23.384;2024-03-22T02:13:42;6.82;;;4.28;;
56051;SDS011;41919;42.648;23.384;2024-03-22T02:16:08;7.72;;;5.03;;
56051;SDS011;41919;42.648;23.384;2024-03-22T02:18:33;8.18;;;4.60;;
56051;SDS011;41919;42.648;23.384;2024-03-22T02:20:59;13.73;;;4.43;;
56051;SDS011;41919;42.648;23.384;2024-03-22T02:23:32;10.05;;;4.28;;
56051;SDS011;41919;42.648;23.384;2024-03-22T02:26:01;6.38;;;3.75;;
56051;SDS011;41919;42.648;23.384;2024-03-22T02:28:28;8.02;;;4.10;;
56051;SDS011;41919;42.648;23.384;2024-03-22T02:30:54;8.68;;;4.47;;
56051;SDS011;41919;42.648;23.384;2024-03-22T02:33:19;8.85;;;4.57;;
56051;SDS011;41919;42.648;23.384;2024-03-22T02:35:48;9.00;;;4.00;;
56051;SDS011;41919;42.648;23.384;2024-03-22T02:38:14;6.32;;;3.80;;
56051;SDS011;41919;42.648;23.384;2024-03-22T02:40:40;9.30;;;3.90;;
56051;SDS011;41919;42.648;23.384;2024-03-22T02:43:05;7.20;;;3.72;;
56051;SDS011;41919;42.648;23.384;2024-03-22T02:45:31;7.70;;;4.03;;
56051;SDS011;41919;42.648;23.384;2024-03-22T02:47:57;5.25;;;3.17;;
56051;SDS011;41919;42.648;23.384;2024-03-22T02:50:22;6.63;;;3.78;;
56051;SDS011;41919;42.648;23.384;2024-03-22T02:52:48;8.10;;;3.78;;
56051;SDS011;41919;42.648;23.384;2024-03-22T02:55:14;7.97;;;4.07;;
56051;SDS011;41919;42.648;23.384;2024-03-22T02:57:39;7.28;;;3.53;;
56051;SDS011;41919;42.648;23.384;2024-03-22T03:00:05;7.43;;;3.70;;
56051;SDS011;41919;42.648;23.384;2024-03-22T03:02:31;6.25;;;3.38;;
56051;SDS011;41919;42.648;23.384;2024-03-22T03:04:56;7.93;;;3.85;;
56051;SDS011;41919;42.648;23.384;2024-03-22T03:07:22;10.57;;;3.88;;
56051;SDS011;41919;42.648;23.384;2024-03-22T03:09:49;7.97;;;3.92;;
56051;SDS011;41919;42.648;23.384;2024-03-22T03:12:14;7.07;;;3.80;;
56051;SDS011;41919;42.648;23.384;2024-03-22T03:14:39;6.80;;;3.53;;
56051;SDS011;41919;42.648;23.384;2024-03-22T03:17:05;8.40;;;4.28;;
56051;SDS011;41919;42.648;23.384;2024-03-22T03:19:30;5.10;;;3.55;;
56051;SDS011;41919;42.648;23.384;2024-03-22T03:21:56;8.05;;;3.78;;
56051;SDS011;41919;42.648;23.384;2024-03-22T03:24:21;11.15;;;3.70;;
56051;SDS011;41919;42.648;23.384;2024-03-22T03:26:46;10.73;;;4.03;;
56051;SDS011;41919;42.648;23.384;2024-03-22T03:29:12;7.25;;;3.40;;
56051;SDS011;41919;42.648;23.384;2024-03-22T03:31:37;8.43;;;3.70;;
56051;SDS011;41919;42.648;23.384;2024-03-22T03:34:03;8.00;;;3.97;;
56051;SDS011;41919;42.648;23.384;2024-03-22T03:36:28;7.30;;;3.85;;
56051;SDS011;41919;42.648;23.384;2024-03-22T03:38:53;9.70;;;4.88;;
56051;SDS011;41919;42.648;23.384;2024-03-22T03:41:19;9.93;;;4.35;;
56051;SDS011;41919;42.648;23.384;2024-03-22T03:43:44;8.88;;;4.55;;
56051;SDS011;41919;42.648;23.384;2024-03-22T03:46:09;7.65;;;4.55;;
56051;SDS011;41919;42.648;23.384;2024-03-22T03:48:35;7.75;;;4.95;;
56051;SDS011;41919;42.648;23.384;2024-03-22T03:51:00;8.25;;;3.67;;
56051;SDS011;41919;42.648;23.384;2024-03-22T03:53:28;11.02;;;4.93;;
56051;SDS011;41919;42.648;23.384;2024-03-22T03:55:54;9.88;;;3.75;;
56051;SDS011;41919;42.648;23.384;2024-03-22T03:58:20;8.75;;;4.60;;
56051;SDS011;41919;42.648;23.384;2024-03-22T04:00:45;10.00;;;4.68;;
56051;SDS011;41919;42.648;23.384;2024-03-22T04:03:10;8.30;;;4.28;;
56051;SDS011;41919;42.648;23.384;2024-03-22T04:05:36;8.40;;;4.43;;
56051;SDS011;41919;42.648;23.384;2024-03-22T04:08:01;11.95;;;5.10;;
56051;SDS011;41919;42.648;23.384;2024-03-22T04:10:27;7.70;;;4.43;;
56051;SDS011;41919;42.648;23.384;2024-03-22T04:12:52;7.57;;;4.28;;
56051;SDS011;41919;42.648;23.384;2024-03-22T04:15:17;9.35;;;4.10;;
56051;SDS011;41919;42.648;23.384;2024-03-22T04:17:43;8.70;;;4.03;;
56051;SDS011;41919;42.648;23.384;2024-03-22T04:20:08;5.70;;;3.40;;
56051;SDS011;41919;42.648;23.384;2024-03-22T04:22:36;5.75;;;3.13;;
56051;SDS011;41919;42.648;23.384;2024-03-22T04:25:01;6.20;;;3.67;;
56051;SDS011;41919;42.648;23.384;2024-03-22T04:27:26;8.77;;;3.50;;
56051;SDS011;41919;42.648;23.384;2024-03-22T04:29:52;6.15;;;3.40;;
56051;SDS011;41919;42.648;23.384;2024-03-22T04:32:17;8.80;;;3.63;;
56051;SDS011;41919;42.648;23.384;2024-03-22T04:34:43;7.70;;;3.35;;
56051;SDS011;41919;42.648;23.384;2024-03-22T04:37:08;9.20;;;3.22;;
56051;SDS011;41919;42.648;23.384;2024-03-22T04:39:34;9.45;;;4.15;;
56051;SDS011;41919;42.648;23.384;2024-03-22T04:41:59;4.88;;;2.97;;
56051;SDS011;41919;42.648;23.384;2024-03-22T04:44:25;6.10;;;3.58;;
56051;SDS011;41919;42.648;23.384;2024-03-22T04:46:50;6.50;;;3.38;;
56051;SDS011;41919;42.648;23.384;2024-03-22T04:49:16;8.18;;;3.88;;
56051;SDS011;41919;42.648;23.384;2024-03-22T04:51:42;7.22;;;3.42;;
56051;SDS011;41919;42.648;23.384;2024-03-22T04:54:07;7.50;;;3.95;;
56051;SDS011;41919;42.648;23.384;2024-03-22T04:56:32;12.52;;;4.55;;
56051;SDS011;41919;42.648;23.384;2024-03-22T04:58:58;9.10;;;4.13;;
56051;SDS011;41919;42.648;23.384;2024-03-22T05:01:23;6.60;;;3.75;;
56051;SDS011;41919;42.648;23.384;2024-03-22T05:03:49;7.22;;;4.20;;
56051;SDS011;41919;42.648;23.384;2024-03-22T05:06:14;9.65;;;4.25;;
56051;SDS011;41919;42.648;23.384;2024-03-22T05:08:40;10.73;;;4.50;;
56051;SDS011;41919;42.648;23.384;2024-03-22T05:11:06;9.60;;;4.70;;
56051;SDS011;41919;42.648;23.384;2024-03-22T05:13:32;8.00;;;3.60;;
56051;SDS011;41919;42.648;23.384;2024-03-22T05:15:58;8.55;;;4.03;;
56051;SDS011;41919;42.648;23.384;2024-03-22T05:18:23;4.88;;;3.30;;
56051;SDS011;41919;42.648;23.384;2024-03-22T05:20:49;5.07;;;3.38;;
56051;SDS011;41919;42.648;23.384;2024-03-22T05:23:14;8.27;;;3.80;;
56051;SDS011;41919;42.648;23.384;2024-03-22T05:25:41;7.88;;;3.30;;
56051;SDS011;41919;42.648;23.384;2024-03-22T05:28:07;9.18;;;3.78;;
56051;SDS011;41919;42.648;23.384;2024-03-22T05:30:33;7.85;;;4.43;;
56051;SDS011;41919;42.648;23.384;2024-03-22T05:32:58;13.43;;;5.90;;
56051;SDS011;41919;42.648;23.384;2024-03-22T05:35:24;13.40;;;5.93;;
56051;SDS011;41919;42.648;23.384;2024-03-22T05:37:49;8.93;;;3.30;;
56051;SDS011;41919;42.648;23.384;2024-03-22T05:40:15;9.48;;;4.15;;
56051;SDS011;41919;42.648;23.384;2024-03-22T05:42:41;7.32;;;3.97;;
56051;SDS011;41919;42.648;23.384;2024-03-22T05:45:07;11.93;;;4.25;;
56051;SDS011;41919;42.648;23.384;2024-03-22T05:47:33;8.18;;;4.40;;
56051;SDS011;41919;42.648;23.384;2024-03-22T05:49:59;9.68;;;4.40;;
56051;SDS011;41919;42.648;23.384;2024-03-22T05:52:25;9.48;;;4.10;;
56051;SDS011;41919;42.648;23.384;2024-03-22T05:54:50;9.43;;;4.55;;
56051;SDS011;41919;42.648;23.384;2024-03-22T05:57:16;8.30;;;4.40;;
56051;SDS011;41919;42.648;23.384;2024-03-22T05:59:42;7.93;;;4.47;;
56051;SDS011;41919;42.648;23.384;2024-03-22T06:02:07;8.07;;;4.40;;
56051;SDS011;41919;42.648;23.384;2024-03-22T06:04:32;7.60;;;4.57;;
56051;SDS011;41919;42.648;23.384;2024-03-22T06:06:58;6.80;;;4.10;;
56051;SDS011;41919;42.648;23.384;2024-03-22T06:09:25;6.30;;;3.85;;
56051;SDS011;41919;42.648;23.384;2024-03-22T06:12:11;8.23;;;4.30;;
56051;SDS011;41919;42.648;23.384;2024-03-22T06:14:38;7.28;;;4.72;;
56051;SDS011;41919;42.648;23.384;2024-03-22T06:17:04;9.65;;;4.25;;
56051;SDS011;41919;42.648;23.384;2024-03-22T06:19:30;6.70;;;4.05;;
56051;SDS011;41919;42.648;23.384;2024-03-22T06:21:55;9.88;;;4.40;;
56051;SDS011;41919;42.648;23.384;2024-03-22T06:24:21;7.45;;;4.38;;
56051;SDS011;41919;42.648;23.384;2024-03-22T06:26:46;8.18;;;4.60;;
56051;SDS011;41919;42.648;23.384;2024-03-22T06:29:11;7.15;;;4.18;;
56051;SDS011;41919;42.648;23.384;2024-03-22T06:31:37;8.73;;;4.13;;
56051;SDS011;41919;42.648;23.384;2024-03-22T06:34:04;6.45;;;4.45;;
56051;SDS011;41919;42.648;23.384;2024-03-22T06:36:30;7.45;;;4.40;;
56051;SDS011;41919;42.648;23.384;2024-03-22T06:38:57;8.88;;;4.50;;
56051;SDS011;41919;42.648;23.384;2024-03-22T06:41:24;8.73;;;4.25;;
56051;SDS011;41919;42.648;23.384;2024-03-22T06:43:49;7.63;;;4.50;;
56051;SDS011;41919;42.648;23.384;2024-03-22T06:46:14;10.55;;;4.47;;
56051;SDS011;41919;42.648;23.384;2024-03-22T06:48:40;6.85;;;4.82;;
56051;SDS011;41919;42.648;23.384;2024-03-22T06:51:05;6.95;;;4.15;;
56051;SDS011;41919;42.648;23.384;2024-03-22T06:53:31;6.38;;;4.55;;
56051;SDS011;41919;42.648;23.384;2024-03-22T06:55:56;8.60;;;4.88;;
56051;SDS011;41919;42.648;23.384;2024-03-22T06:58:21;12.90;;;5.10;;
56051;SDS011;41919;42.648;23.384;2024-03-22T07:00:47;10.80;;;5.20;;
56051;SDS011;41919;42.648;23.384;2024-03-22T07:03:12;11.60;;;6.93;;
56051;SDS011;41919;42.648;23.384;2024-03-22T07:05:38;8.88;;;5.80;;
56051;SDS011;41919;42.648;23.384;2024-03-22T07:08:03;12.93;;;5.90;;
56051;SDS011;41919;42.648;23.384;2024-03-22T07:10:29;11.63;;;6.53;;
56051;SDS011;41919;42.648;23.384;2024-03-22T07:12:55;14.52;;;6.95;;
56051;SDS011;41919;42.648;23.384;2024-03-22T07:15:23;11.75;;;7.00;;
56051;SDS011;41919;42.648;23.384;2024-03-22T07:17:49;11.98;;;6.95;;
56051;SDS011;41919;42.648;23.384;2024-03-22T07:20:15;11.43;;;7.43;;
56051;SDS011;41919;42.648;23.384;2024-03-22T07:22:40;11.52;;;7.25;;
56051;SDS011;41919;42.648;23.384;2024-03-22T07:25:05;16.65;;;8.43;;
56051;SDS011;41919;42.648;23.384;2024-03-22T07:27:31;12.05;;;7.72;;
56051;SDS011;41919;42.648;23.384;2024-03-22T07:29:57;17.85;;;8.63;;
56051;SDS011;41919;42.648;23.384;2024-03-22T07:32:22;12.18;;;7.25;;
56051;SDS011;41919;42.648;23.384;2024-03-22T07:34:47;13.38;;;7.53;;
56051;SDS011;41919;42.648;23.384;2024-03-22T07:37:13;15.25;;;8.07;;
56051;SDS011;41919;42.648;23.384;2024-03-22T07:39:38;10.57;;;6.75;;
56051;SDS011;41919;42.648;23.384;2024-03-22T07:42:04;10.93;;;6.05;;
56051;SDS011;41919;42.648;23.384;2024-03-22T07:44:30;12.18;;;6.38;;
56051;SDS011;41919;42.648;23.384;2024-03-22T07:46:55;10.80;;;6.35;;
56051;SDS011;41919;42.648;23.384;2024-03-22T07:49:20;8.00;;;3.97;;
56051;SDS011;41919;42.648;23.384;2024-03-22T07:51:46;3.28;;;2.97;;
56051;SDS011;41919;42.648;23.384;2024-03-22T07:54:11;4.85;;;3.30;;
56051;SDS011;41919;42.648;23.384;2024-03-22T07:56:37;5.55;;;3.47;;
56051;SDS011;41919;42.648;23.384;2024-03-22T07:59:02;5.60;;;3.88;;
56051;SDS011;41919;42.648;23.384;2024-03-22T08:01:28;7.28;;;3.90;;
56051;SDS011;41919;42.648;23.384;2024-03-22T08:03:53;3.95;;;2.67;;
56051;SDS011;41919;42.648;23.384;2024-03-22T08:06:19;5.22;;;2.50;;
56051;SDS011;41919;42.648;23.384;2024-03-22T08:08:44;4.32;;;3.05;;
56051;SDS011;41919;42.648;23.384;2024-03-22T08:11:10;3.50;;;3.20;;
56051;SDS011;41919;42.648;23.384;2024-03-22T08:13:35;6.50;;;3.00;;
56051;SDS011;41919;42.648;23.384;2024-03-22T08:16:01;5.22;;;3.45;;
56051;SDS011;41919;42.648;23.384;2024-03-22T08:18:27;3.38;;;2.80;;
56051;SDS011;41919;42.648;23.384;2024-03-22T08:20:52;3.20;;;2.72;;
56051;SDS011;41919;42.648;23.384;2024-03-22T08:23:17;4.03;;;2.88;;
56051;SDS011;41919;42.648;23.384;2024-03-22T08:25:45;4.57;;;3.00;;
56051;SDS011;41919;42.648;23.384;2024-03-22T08:28:11;3.80;;;2.47;;
56051;SDS011;41919;42.648;23.384;2024-03-22T08:30:38;2.53;;;2.33;;
56051;SDS011;41919;42.648;23.384;2024-03-22T08:33:04;4.18;;;2.80;;
56051;SDS011;41919;42.648;23.384;2024-03-22T08:35:29;4.25;;;3.22;;
56051;SDS011;41919;42.648;23.384;2024-03-22T08:37:55;6.60;;;3.03;;
56051;SDS011;41919;42.648;23.384;2024-03-22T08:40:21;6.53;;;3.20;;
56051;SDS011;41919;42.648;23.384;2024-03-22T08:42:46;3.78;;;2.65;;
56051;SDS011;41919;42.648;23.384;2024-03-22T08:45:12;3.35;;;2.55;;
56051;SDS011;41919;42.648;23.384;2024-03-22T08:47:38;5.18;;;2.85;;
56051;SDS011;41919;42.648;23.384;2024-03-22T08:50:05;4.35;;;3.25;;
56051;SDS011;41919;42.648;23.384;2024-03-22T08:52:31;3.85;;;3.20;;
56051;SDS011;41919;42.648;23.384;2024-03-22T08:54:59;3.95;;;2.85;;
56051;SDS011;41919;42.648;23.384;2024-03-22T08:57:24;3.60;;;2.90;;
56051;SDS011;41919;42.648;23.384;2024-03-22T08:59:50;4.50;;;2.90;;
56051;SDS011;41919;42.648;23.384;2024-03-22T09:02:15;6.45;;;2.72;;
56051;SDS011;41919;42.648;23.384;2024-03-22T09:04:41;4.18;;;2.47;;
56051;SDS011;41919;42.648;23.384;2024-03-22T09:07:07;3.58;;;2.63;;
56051;SDS011;41919;42.648;23.384;2024-03-22T09:09:32;3.65;;;2.65;;
56051;SDS011;41919;42.648;23.384;2024-03-22T09:11:58;3.95;;;2.80;;
56051;SDS011;41919;42.648;23.384;2024-03-22T09:14:23;4.82;;;2.72;;
56051;SDS011;41919;42.648;23.384;2024-03-22T09:16:48;3.60;;;2.60;;
56051;SDS011;41919;42.648;23.384;2024-03-22T09:19:14;4.85;;;2.75;;
56051;SDS011;41919;42.648;23.384;2024-03-22T09:21:39;4.03;;;2.47;;
56051;SDS011;41919;42.648;23.384;2024-03-22T09:24:05;2.50;;;2.30;;
56051;SDS011;41919;42.648;23.384;2024-03-22T09:26:32;3.15;;;2.58;;
56051;SDS011;41919;42.648;23.384;2024-03-22T09:28:57;5.57;;;2.80;;
56051;SDS011;41919;42.648;23.384;2024-03-22T09:31:23;2.97;;;2.58;;
56051;SDS011;41919;42.648;23.384;2024-03-22T09:33:48;4.22;;;2.45;;
56051;SDS011;41919;42.648;23.384;2024-03-22T09:36:14;3.65;;;2.45;;
56051;SDS011;41919;42.648;23.384;2024-03-22T09:38:39;4.10;;;2.83;;
56051;SDS011;41919;42.648;23.384;2024-03-22T09:41:04;3.92;;;2.60;;
56051;SDS011;41919;42.648;23.384;2024-03-22T09:43:31;6.80;;;2.80;;
56051;SDS011;41919;42.648;23.384;2024-03-22T09:45:58;3.70;;;2.47;;
56051;SDS011;41919;42.648;23.384;2024-03-22T09:48:23;3.97;;;2.50;;
56051;SDS011;41919;42.648;23.384;2024-03-22T09:50:50;6.65;;;2.97;;
56051;SDS011;41919;42.648;23.384;2024-03-22T09:53:19;4.38;;;2.40;;
56051;SDS011;41919;42.648;23.384;2024-03-22T09:55:46;3.33;;;2.40;;
56051;SDS011;41919;42.648;23.384;2024-03-22T09:58:12;2.90;;;2.30;;
56051;SDS011;41919;42.648;23.384;2024-03-22T10:00:38;5.13;;;2.38;;
56051;SDS011;41919;42.648;23.384;2024-03-22T10:03:03;5.57;;;2.90;;
56051;SDS011;41919;42.648;23.384;2024-03-22T10:05:30;2.97;;;2.45;;
56051;SDS011;41919;42.648;23.384;2024-03-22T10:07:55;5.78;;;2.40;;
56051;SDS011;41919;42.648;23.384;2024-03-22T10:10:21;2.80;;;2.35;;
56051;SDS011;41919;42.648;23.384;2024-03-22T10:12:46;2.83;;;2.55;;
56051;SDS011;41919;42.648;23.384;2024-03-22T10:15:12;4.75;;;2.60;;
56051;SDS011;41919;42.648;23.384;2024-03-22T10:17:38;4.28;;;2.67;;
56051;SDS011;41919;42.648;23.384;2024-03-22T10:20:05;4.28;;;2.60;;
56051;SDS011;41919;42.648;23.384;2024-03-22T10:22:58;3.97;;;2.10;;
56051;SDS011;41919;42.648;23.384;2024-03-22T10:25:25;3.40;;;2.55;;
56051;SDS011;41919;42.648;23.384;2024-03-22T10:27:53;4.03;;;2.67;;
56051;SDS011;41919;42.648;23.384;2024-03-22T10:30:19;3.67;;;2.65;;
56051;SDS011;41919;42.648;23.384;2024-03-22T10:32:44;5.15;;;2.60;;
56051;SDS011;41919;42.648;23.384;2024-03-22T10:35:11;4.35;;;2.40;;
56051;SDS011;41919;42.648;23.384;2024-03-22T10:37:38;3.60;;;2.22;;
56051;SDS011;41919;42.648;23.384;2024-03-22T10:40:04;5.50;;;2.60;;
56051;SDS011;41919;42.648;23.384;2024-03-22T10:42:36;3.30;;;2.40;;
56051;SDS011;41919;42.648;23.384;2024-03-22T10:45:03;2.85;;;2.58;;
56051;SDS011;41919;42.648;23.384;2024-03-22T10:47:30;3.08;;;2.35;;
56051;SDS011;41919;42.648;23.384;2024-03-22T10:50:09;5.10;;;2.08;;
56051;SDS011;41919;42.648;23.384;2024-03-22T10:52:39;3.97;;;2.42;;
56051;SDS011;41919;42.648;23.384;2024-03-22T10:55:13;2.63;;;2.13;;
56051;SDS011;41919;42.648;23.384;2024-03-22T10:57:49;4.75;;;2.55;;
56051;SDS011;41919;42.648;23.384;2024-03-22T11:00:15;14.05;;;8.18;;
56051;SDS011;41919;42.648;23.384;2024-03-22T11:02:53;3.55;;;2.33;;
56051;SDS011;41919;42.648;23.384;2024-03-22T11:05:18;4.20;;;2.47;;
56051;SDS011;41919;42.648;23.384;2024-03-22T11:07:44;6.95;;;2.70;;
56051;SDS011;41919;42.648;23.384;2024-03-22T11:10:13;4.60;;;2.42;;
56051;SDS011;41919;42.648;23.384;2024-03-22T11:12:39;4.00;;;2.50;;
56051;SDS011;41919;42.648;23.384;2024-03-22T11:15:06;8.68;;;2.75;;
56051;SDS011;41919;42.648;23.384;2024-03-22T11:17:32;4.47;;;2.30;;
56051;SDS011;41919;42.648;23.384;2024-03-22T11:19:57;3.75;;;2.50;;
56051;SDS011;41919;42.648;23.384;2024-03-22T11:22:24;4.85;;;2.47;;
56051;SDS011;41919;42.648;23.384;2024-03-22T11:24:50;3.30;;;2.42;;
56051;SDS011;41919;42.648;23.384;2024-03-22T11:27:17;3.38;;;2.60;;
56051;SDS011;41919;42.648;23.384;2024-03-22T11:29:42;4.30;;;2.13;;
56051;SDS011;41919;42.648;23.384;2024-03-22T11:32:08;4.43;;;2.67;;
56051;SDS011;41919;42.648;23.384;2024-03-22T11:34:37;6.53;;;2.42;;
56051;SDS011;41919;42.648;23.384;2024-03-22T11:37:05;3.97;;;2.83;;
56051;SDS011;41919;42.648;23.384;2024-03-22T11:39:35;4.10;;;2.85;;
56051;SDS011;41919;42.648;23.384;2024-03-22T11:42:05;4.32;;;2.70;;
56051;SDS011;41919;42.648;23.384;2024-03-22T11:44:33;4.43;;;2.63;;
56051;SDS011;41919;42.648;23.384;2024-03-22T11:47:03;5.88;;;2.55;;
56051;SDS011;41919;42.648;23.384;2024-03-22T11:49:29;5.00;;;2.35;;
56051;SDS011;41919;42.648;23.384;2024-03-22T11:51:58;2.88;;;2.20;;
56051;SDS011;41919;42.648;23.384;2024-03-22T11:54:23;2.42;;;2.00;;
56051;SDS011;41919;42.648;23.384;2024-03-22T11:56:49;3.83;;;2.08;;
56051;SDS011;41919;42.648;23.384;2024-03-22T11:59:15;4.35;;;2.28;;
56051;SDS011;41919;42.648;23.384;2024-03-22T12:01:44;4.72;;;2.20;;
56051;SDS011;41919;42.648;23.384;2024-03-22T12:04:09;2.72;;;2.22;;
56051;SDS011;41919;42.648;23.384;2024-03-22T12:06:41;2.60;;;1.92;;
56051;SDS011;41919;42.648;23.384;2024-03-22T12:09:07;4.70;;;2.53;;
56051;SDS011;41919;42.648;23.384;2024-03-22T12:11:33;2.65;;;2.17;;
56051;SDS011;41919;42.648;23.384;2024-03-22T12:13:58;5.10;;;2.65;;
56051;SDS011;41919;42.648;23.384;2024-03-22T12:16:24;3.33;;;2.13;;
56051;SDS011;41919;42.648;23.384;2024-03-22T12:18:49;2.72;;;1.83;;
56051;SDS011;41919;42.648;23.384;2024-03-22T12:21:15;4.60;;;2.22;;
56051;SDS011;41919;42.648;23.384;2024-03-22T12:23:40;2.08;;;1.88;;
56051;SDS011;41919;42.648;23.384;2024-03-22T12:26:05;3.05;;;2.00;;
56051;SDS011;41919;42.648;23.384;2024-03-22T12:28:31;2.88;;;2.13;;
56051;SDS011;41919;42.648;23.384;2024-03-22T12:30:57;3.58;;;2.50;;
56051;SDS011;41919;42.648;23.384;2024-03-22T12:33:22;4.88;;;3.50;;
56051;SDS011;41919;42.648;23.384;2024-03-22T12:35:48;4.18;;;2.30;;
56051;SDS011;41919;42.648;23.384;2024-03-22T12:38:13;3.85;;;1.80;;
56051;SDS011;41919;42.648;23.384;2024-03-22T12:40:39;2.65;;;1.80;;
56051;SDS011;41919;42.648;23.384;2024-03-22T12:43:05;3.72;;;2.35;;
56051;SDS011;41919;42.648;23.384;2024-03-22T12:45:31;3.85;;;2.65;;
56051;SDS011;41919;42.648;23.384;2024-03-22T12:47:57;2.85;;;2.03;;
56051;SDS011;41919;42.648;23.384;2024-03-22T12:50:23;3.05;;;2.35;;
56051;SDS011;41919;42.648;23.384;2024-03-22T12:52:49;3.85;;;2.00;;
56051;SDS011;41919;42.648;23.384;2024-03-22T12:55:14;2.90;;;2.05;;
56051;SDS011;41919;42.648;23.384;2024-03-22T12:57:40;2.67;;;2.30;;
56051;SDS011;41919;42.648;23.384;2024-03-22T13:00:06;3.25;;;2.20;;
56051;SDS011;41919;42.648;23.384;2024-03-22T13:02:38;5.50;;;2.13;;
56051;SDS011;41919;42.648;23.384;2024-03-22T13:05:04;3.33;;;2.10;;
56051;SDS011;41919;42.648;23.384;2024-03-22T13:07:30;2.67;;;2.47;;
56051;SDS011;41919;42.648;23.384;2024-03-22T13:09:56;3.70;;;2.40;;
56051;SDS011;41919;42.648;23.384;2024-03-22T13:12:21;2.10;;;1.90;;
56051;SDS011;41919;42.648;23.384;2024-03-22T13:14:46;2.88;;;2.00;;
56051;SDS011;41919;42.648;23.384;2024-03-22T13:17:12;4.47;;;2.08;;
56051;SDS011;41919;42.648;23.384;2024-03-22T13:19:38;3.08;;;2.40;;
56051;SDS011;41919;42.648;23.384;2024-03-22T13:22:03;2.78;;;2.17;;
56051;SDS011;41919;42.648;23.384;2024-03-22T13:24:29;3.40;;;2.20;;
56051;SDS011;41919;42.648;23.384;2024-03-22T13:26:55;2.67;;;2.08;;
56051;SDS011;41919;42.648;23.384;2024-03-22T13:29:20;2.70;;;2.20;;
56051;SDS011;41919;42.648;23.384;2024-03-22T13:31:45;3.83;;;2.08;;
56051;SDS011;41919;42.648;23.384;2024-03-22T13:34:11;2.75;;;2.15;;
56051;SDS011;41919;42.648;23.384;2024-03-22T13:36:36;2.22;;;2.03;;
56051;SDS011;41919;42.648;23.384;2024-03-22T13:39:03;2.00;;;1.77;;
56051;SDS011;41919;42.648;23.384;2024-03-22T13:41:29;4.93;;;2.20;;
56051;SDS011;41919;42.648;23.384;2024-03-22T13:43:55;2.00;;;1.80;;
56051;SDS011;41919;42.648;23.384;2024-03-22T13:46:20;4.43;;;2.60;;
56051;SDS011;41919;42.648;23.384;2024-03-22T13:48:46;4.03;;;2.50;;
56051;SDS011;41919;42.648;23.384;2024-03-22T13:51:12;4.43;;;2.67;;
56051;SDS011;41919;42.648;23.384;2024-03-22T13:53:38;3.05;;;2.45;;
56051;SDS011;41919;42.648;23.384;2024-03-22T13:56:03;2.45;;;2.25;;
56051;SDS011;41919;42.648;23.384;2024-03-22T13:58:29;3.10;;;2.15;;
56051;SDS011;41919;42.648;23.384;2024-03-22T14:00:54;2.80;;;2.05;;
56051;SDS011;41919;42.648;23.384;2024-03-22T14:03:19;2.75;;;2.00;;
56051;SDS011;41919;42.648;23.384;2024-03-22T14:05:45;4.00;;;2.20;;
56051;SDS011;41919;42.648;23.384;2024-03-22T14:08:10;3.15;;;2.22;;
56051;SDS011;41919;42.648;23.384;2024-03-22T14:10:36;3.50;;;2.30;;
56051;SDS011;41919;42.648;23.384;2024-03-22T14:13:03;3.72;;;2.42;;
56051;SDS011;41919;42.648;23.384;2024-03-22T14:15:29;4.10;;;2.25;;
56051;SDS011;41919;42.648;23.384;2024-03-22T14:17:57;4.78;;;2.15;;
56051;SDS011;41919;42.648;23.384;2024-03-22T14:20:23;2.90;;;2.10;;
56051;SDS011;41919;42.648;23.384;2024-03-22T14:22:49;7.38;;;2.28;;
56051;SDS011;41919;42.648;23.384;2024-03-22T14:25:16;2.63;;;1.98;;
56051;SDS011;41919;42.648;23.384;2024-03-22T14:27:42;4.57;;;2.38;;